Time;durP1;ratioP1;P1;durP2;ratioP2;P2;SDS_P1;SDS_P2;PMS_P1;PMS_P2;Temp;Humidity;BMP_temperature;BMP_pressure;BME280_temperature;BME280_humidity;BME280_pressure;Samples;Min_cycle;Max_cycle;Signal;HPM_P1;HPM_P2
2022/12/10 00:01:11;;;;;;;;;;;;;;;10.51;49.68;99800.84;4943167;28;104989;-65
2022/12/10 00:03:37;;;;;;;;;;;;;;;10.50;49.97;99803.81;4929268;28;99264;-66
2022/12/10 00:06:04;;;;;;;;;;;;;;;10.50;49.74;99803.81;4946783;28;98112;-67
2022/12/10 00:08:30;;;;;;;;;;;;;;;10.49;50.12;99800.34;4976016;28;119998;-67
2022/12/10 00:10:56;;;;;;;;;;;;;;;10.48;49.84;99792.50;4959261;28;115116;-65
2022/12/10 00:13:22;;;;;;;;;;;;;;;10.47;50.22;99801.69;4944923;28;127720;-67
2022/12/10 00:15:48;;;;;;;;;;;;;;;10.48;49.87;99806.78;4945205;28;103621;-67
2022/12/10 00:18:14;;;;;;;;;;;;;;;10.47;49.82;99805.19;4927020;28;128338;-68
2022/12/10 00:20:40;;;;;;;;;;;;;;;10.47;49.85;99802.50;4960071;28;128374;-66
2022/12/10 00:23:06;;;;;;;;;;;;;;;10.46;49.95;99808.97;4960895;28;126650;-65
2022/12/10 00:25:32;;;;;;;;;;;;;;;10.45;49.66;99803.84;4962159;28;117528;-67
2022/12/10 00:27:58;;;;;;;;;;;;;;;10.44;49.84;99805.75;4929790;28;118001;-67
2022/12/10 00:30:24;;;;;;;;;;;;;;;10.44;49.80;99802.25;4942109;28;126770;-66
2022/12/10 00:32:50;;;;;;;;;;;;;;;10.44;49.90;99810.34;4928000;28;98155;-67
2022/12/10 00:35:16;;;;;;;;;;;;;;;10.42;50.07;99799.84;4928214;28;117696;-67
2022/12/10 00:37:42;;;;;;;;;;;;;;;10.43;49.90;99806.03;4958100;28;128190;-67
2022/12/10 00:40:08;;;;;;;;;;;;;;;10.41;49.85;99806.31;4942644;28;127948;-65
2022/12/10 00:42:34;;;;;;;;;;;;;;;10.41;49.63;99813.59;4957379;28;122359;-67
2022/12/10 00:45:00;;;;;;;;;;;;;;;10.39;49.91;99808.47;4942749;28;119561;-65
2022/12/10 00:47:26;;;;;;;;;;;;;;;10.37;49.66;99812.53;4939320;27;127199;-67
2022/12/10 00:49:52;;;;;;;;;;;;;;;10.37;49.91;99813.34;4941074;28;126469;-67
2022/12/10 00:52:17;;;;;;;;;;;;;;;10.37;49.92;99812.53;4958982;28;121208;-67
2022/12/10 00:54:43;;;;;;;;;;;;;;;10.36;50.16;99810.94;4954660;28;117398;-65
2022/12/10 00:57:09;;;;;;;;;;;;;;;10.35;49.62;99806.63;4959033;28;128608;-65
2022/12/10 00:59:35;;;;;;;;;;;;;;;10.34;49.99;99811.22;4942468;28;128169;-67
2022/12/10 01:02:01;;;;;;;;;;;;;;;10.32;50.35;99805.31;4944781;28;98211;-67
2022/12/10 01:04:27;;;;;;;;;;;;;;;10.32;50.25;99811.50;4944155;28;117829;-67
2022/12/10 01:06:54;;;;;;;;;;;;;;;10.32;49.91;99814.19;4957967;28;109449;-65
2022/12/10 01:09:24;;;;;;;;;;;;;;;10.30;50.16;99807.50;4957387;28;98060;-67
2022/12/10 01:11:51;;;;;;;;;;;;;;;10.31;49.87;99814.47;4943492;28;97979;-67
2022/12/10 01:14:18;;;;;;;;;;;;;;;10.29;49.97;99813.94;4941755;28;98197;-65
2022/12/10 01:16:45;;;;;;;;;;;;;;;10.29;49.80;99809.34;4962176;28;113061;-65
2022/12/10 01:19:10;;;;;;;;;;;;;;;10.27;50.07;99813.44;4957607;28;111768;-67
2022/12/10 01:21:36;;;;;;;;;;;;;;;10.27;49.56;99816.13;4960026;28;116268;-66
2022/12/10 01:24:02;;;;;;;;;;;;;;;10.26;50.23;99817.22;4963611;28;97863;-65
2022/12/10 01:26:31;;;;;;;;;;;;;;;10.24;49.83;99809.38;4942130;28;124305;-67
2022/12/10 01:28:57;;;;;;;;;;;;;;;10.24;49.53;99820.16;4960423;28;118309;-65
2022/12/10 01:31:34;;;;;;;;;;;;;;;10.24;50.08;99819.34;4940441;28;126771;-66
2022/12/10 01:34:00;;;;;;;;;;;;;;;10.23;49.86;99823.94;4959385;28;118163;-67
2022/12/10 01:36:28;;;;;;;;;;;;;;;10.22;49.89;99822.31;4941559;28;111136;-67
2022/12/10 01:38:54;;;;;;;;;;;;;;;10.21;49.72;99820.69;4924393;28;98103;-64
2022/12/10 01:41:21;;;;;;;;;;;;;;;10.21;50.12;99819.91;4939152;28;129802;-64
2022/12/10 01:43:51;;;;;;;;;;;;;;;10.20;49.94;99826.38;4960290;28;98081;-64
2022/12/10 01:46:18;;;;;;;;;;;;;;;10.19;50.21;99824.78;4961109;28;100060;-66
2022/12/10 01:48:44;;;;;;;;;;;;;;;10.19;49.95;99827.47;4974432;28;98392;-64
2022/12/10 01:51:10;;;;;;;;;;;;;;;10.19;49.53;99832.84;4942381;28;128298;-66
2022/12/10 01:53:36;;;;;;;;;;;;;;;10.17;49.57;99830.41;4940061;28;109845;-66
2022/12/10 01:56:02;;;;;;;;;;;;;;;10.16;50.15;99828.03;4952902;28;127498;-64
2022/12/10 01:58:28;;;;;;;;;;;;;;;10.16;49.92;99831.50;4938748;28;98174;-66
2022/12/10 02:01:14;;;;;;;;;;;;;;;10.15;50.04;99824.53;4940950;28;127538;-66
2022/12/10 02:03:46;;;;;;;;;;;;;;;10.15;49.57;99818.34;4962626;28;103305;-64
2022/12/10 02:06:17;;;;;;;;;;;;;;;10.15;49.95;99821.03;4975571;28;98405;-66
2022/12/10 02:09:03;;;;;;;;;;;;;;;10.14;50.06;99828.31;4961002;28;123531;-64
2022/12/10 02:11:46;;;;;;;;;;;;;;;10.13;49.81;99823.19;4961841;28;98872;-64
2022/12/10 02:14:37;;;;;;;;;;;;;;;10.14;49.55;99825.63;4952053;28;100022;-64
2022/12/10 02:17:07;;;;;;;;;;;;;;;10.13;49.56;99821.28;4962679;28;99616;-64
2022/12/10 02:19:55;;;;;;;;;;;;;;;10.13;49.95;99812.41;4938614;28;129915;-64
2022/12/10 02:22:21;;;;;;;;;;;;;;;10.13;49.94;99817.81;4981684;28;98001;-66
2022/12/10 02:24:47;;;;;;;;;;;;;;;10.11;49.49;99815.41;4952189;28;117759;-66
2022/12/10 02:27:27;;;;;;;;;;;;;;;10.12;49.91;99816.19;4927793;28;128511;-66
2022/12/10 02:29:53;;;;;;;;;;;;;;;10.12;49.76;99818.88;4960387;28;126334;-66
2022/12/10 02:32:24;;;;;;;;;;;;;;;10.11;49.93;99811.91;4946550;28;127825;-64
2022/12/10 02:34:53;;;;;;;;;;;;;;;10.10;49.60;99813.78;4927531;28;98073;-66
2022/12/10 02:37:22;;;;;;;;;;;;;;;10.09;49.69;99815.66;4944497;28;124371;-64
2022/12/10 02:39:49;;;;;;;;;;;;;;;10.09;49.95;99818.34;4945677;28;99241;-64
2022/12/10 02:42:17;;;;;;;;;;;;;;;10.09;49.91;99814.84;4927408;28;109503;-64
2022/12/10 02:44:43;;;;;;;;;;;;;;;10.08;49.84;99814.06;4960091;28;97987;-66
2022/12/10 02:47:09;;;;;;;;;;;;;;;10.07;50.00;99809.75;4937672;28;126951;-64
2022/12/10 02:49:35;;;;;;;;;;;;;;;10.06;49.59;99802.78;4941185;28;128338;-64
2022/12/10 02:52:07;;;;;;;;;;;;;;;10.06;50.13;99810.84;4961124;28;127208;-64
2022/12/10 02:54:50;;;;;;;;;;;;;;;10.06;49.77;99813.53;4959856;28;110849;-66
2022/12/10 02:57:19;;;;;;;;;;;;;;;10.04;50.19;99813.00;4940760;28;128051;-66
2022/12/10 02:59:52;;;;;;;;;;;;;;;10.05;49.79;99808.44;4973923;28;98338;-64
2022/12/10 03:02:24;;;;;;;;;;;;;;;10.03;49.53;99811.41;4961035;28;98119;-64
2022/12/10 03:04:59;;;;;;;;;;;;;;;10.03;49.80;99816.00;4965219;28;98024;-66
2022/12/10 03:07:45;;;;;;;;;;;;;;;10.01;49.49;99815.44;4942279;28;123027;-63
2022/12/10 03:10:59;;;;;;;;;;;;;;;9.99;50.20;99815.75;4960492;28;123551;-64
2022/12/10 03:13:58;;;;;;;;;;;;;;;10.00;49.82;99822.72;4932912;28;97872;-64
2022/12/10 03:16:25;;;;;;;;;;;;;;;9.99;49.65;99826.50;4957870;28;101298;-66
2022/12/10 03:18:53;;;;;;;;;;;;;;;9.99;49.90;99823.81;4965957;28;97974;-64
2022/12/10 03:21:19;;;;;;;;;;;;;;;9.98;49.74;99824.91;4960630;28;98819;-66
2022/12/10 03:23:46;;;;;;;;;;;;;;;9.96;49.51;99821.69;4944701;28;126738;-64
2022/12/10 03:26:12;;;;;;;;;;;;;;;9.97;49.76;99827.88;4939437;28;98076;-64
2022/12/10 03:28:41;;;;;;;;;;;;;;;9.95;49.78;99820.06;4963229;28;103056;-66
2022/12/10 03:31:09;;;;;;;;;;;;;;;9.95;49.83;99824.66;4948206;28;124259;-63
2022/12/10 03:33:35;;;;;;;;;;;;;;;9.94;49.50;99820.34;4944508;28;119874;-65
2022/12/10 03:36:01;;;;;;;;;;;;;;;9.94;49.71;99821.16;4928297;28;118313;-66
2022/12/10 03:38:27;;;;;;;;;;;;;;;9.92;49.80;99820.63;4959462;28;123022;-63
2022/12/10 03:40:53;;;;;;;;;;;;;;;9.94;49.87;99825.72;4944357;28;127792;-65
2022/12/10 03:43:20;;;;;;;;;;;;;;;9.91;49.47;99815.53;4956611;28;127687;-65
2022/12/10 03:45:46;;;;;;;;;;;;;;;9.90;49.78;99814.69;4965917;28;109312;-64
2022/12/10 03:48:12;;;;;;;;;;;;;;;9.90;49.52;99817.38;4943375;28;129003;-63
2022/12/10 03:50:38;;;;;;;;;;;;;;;9.89;50.26;99813.09;4979688;28;127448;-65
2022/12/10 03:53:04;;;;;;;;;;;;;;;9.90;49.93;99828.16;4939255;28;128017;-63
2022/12/10 03:55:30;;;;;;;;;;;;;;;9.89;50.03;99818.47;4941463;28;116874;-63
2022/12/10 03:57:56;;;;;;;;;;;;;;;9.89;49.71;99820.38;4962748;28;99324;-63
2022/12/10 04:00:22;;;;;;;;;;;;;;;9.88;49.82;99824.97;4959472;28;127123;-65
2022/12/10 04:02:48;;;;;;;;;;;;;;;9.88;49.88;99824.16;4976325;28;122874;-65
2022/12/10 04:05:14;;;;;;;;;;;;;;;9.87;49.79;99817.97;4943191;28;109133;-65
2022/12/10 04:07:39;;;;;;;;;;;;;;;9.86;50.17;99821.72;4974487;28;128301;-63
2022/12/10 04:10:05;;;;;;;;;;;;;;;9.87;49.87;99828.75;4963216;28;128073;-63
2022/12/10 04:12:31;;;;;;;;;;;;;;;9.86;49.45;99827.09;4967754;28;122955;-65
2022/12/10 04:17:42;;;;;;;;;;;;;;;9.86;49.79;99829.81;4944372;28;97989;-63
2022/12/10 04:26:51;;;;;;;;;;;;;;;9.86;50.04;99824.41;4944055;28;113252;-62
2022/12/10 04:28:25;;;;;;;;;;;;;;;9.82;49.99;99821.50;4959116;28;98125;-62
2022/12/10 04:30:51;;;;;;;;;;;;;;;9.84;49.54;99826.59;4972174;28;128419;-65
2022/12/10 04:33:17;;;;;;;;;;;;;;;9.84;49.82;99830.09;4927213;28;98027;-62
2022/12/10 04:35:43;;;;;;;;;;;;;;;9.82;50.00;99831.44;4959974;28;116926;-66
2022/12/10 04:38:09;;;;;;;;;;;;;;;9.83;49.56;99830.38;4959725;28;102921;-61
2022/12/10 04:40:35;;;;;;;;;;;;;;;9.84;49.36;99842.75;4976403;28;126479;-64
2022/12/10 04:43:01;;;;;;;;;;;;;;;9.82;49.54;99829.56;4958425;28;129121;-64
2022/12/10 04:45:27;;;;;;;;;;;;;;;9.82;49.84;99831.44;4943999;28;116819;-63
2022/12/10 04:47:53;;;;;;;;;;;;;;;9.81;49.72;99832.53;4943659;28;127516;-64
2022/12/10 04:50:18;;;;;;;;;;;;;;;9.82;49.68;99836.81;4942454;28;129987;-62
2022/12/10 04:52:44;;;;;;;;;;;;;;;9.82;49.94;99836.81;4963483;28;126945;-61
2022/12/10 04:55:10;;;;;;;;;;;;;;;9.81;49.93;99837.91;4940863;28;117807;-61
2022/12/10 04:57:36;;;;;;;;;;;;;;;9.80;49.53;99825.53;4941609;28;127701;-61
2022/12/10 05:00:03;;;;;;;;;;;;;;;9.82;49.62;99836.81;4966430;28;127170;-61
2022/12/10 05:02:29;;;;;;;;;;;;;;;9.81;49.73;99836.03;4942172;28;110260;-62
2022/12/10 05:04:55;;;;;;;;;;;;;;;9.81;50.17;99838.72;4956048;28;111927;-61
2022/12/10 05:07:20;;;;;;;;;;;;;;;9.81;49.37;99846.78;4943417;28;126918;-65
2022/12/10 05:09:46;;;;;;;;;;;;;;;9.81;49.81;99841.41;4946975;28;104737;-65
2022/12/10 05:12:13;;;;;;;;;;;;;;;9.81;49.84;99835.22;4958005;28;126168;-65
2022/12/10 05:14:39;;;;;;;;;;;;;;;9.83;49.66;99835.75;4959942;28;97961;-65
2022/12/10 05:17:05;;;;;;;;;;;;;;;9.83;49.92;99830.38;4960155;28;106662;-62
2022/12/10 05:19:31;;;;;;;;;;;;;;;9.82;50.19;99823.34;4977369;28;98136;-65
2022/12/10 05:24:41;;;;;;;;;;;;;;;9.84;49.82;99834.66;4944576;28;100205;-62
2022/12/10 05:27:07;;;;;;;;;;;;;;;9.84;49.58;99829.28;4957013;28;127303;-66
2022/12/10 05:29:33;;;;;;;;;;;;;;;9.85;49.75;99830.88;4941391;28;128291;-62
2022/12/10 05:31:59;;;;;;;;;;;;;;;9.86;49.97;99835.19;4957682;28;97977;-62
2022/12/10 05:34:26;;;;;;;;;;;;;;;9.86;49.39;99829.81;4944022;28;117075;-65
2022/12/10 05:36:52;;;;;;;;;;;;;;;9.86;49.56;99835.19;4961920;28;98181;-65
2022/12/10 05:39:17;;;;;;;;;;;;;;;9.88;49.71;99824.97;4968158;28;98634;-62
2022/12/10 05:41:45;;;;;;;;;;;;;;;9.90;50.13;99832.75;4958403;28;97830;-62
2022/12/10 05:44:11;;;;;;;;;;;;;;;9.89;49.73;99831.94;4943295;28;98975;-62
2022/12/10 05:46:37;;;;;;;;;;;;;;;9.90;49.56;99841.63;4942938;28;127750;-62
2022/12/10 05:49:03;;;;;;;;;;;;;;;9.90;49.62;99836.25;4958444;28;120943;-62
2022/12/10 05:51:30;;;;;;;;;;;;;;;9.91;49.73;99835.19;4942657;28;97971;-65
2022/12/10 05:53:57;;;;;;;;;;;;;;;9.92;49.84;99838.66;4929163;28;98357;-65
2022/12/10 05:56:23;;;;;;;;;;;;;;;9.92;49.76;99844.84;4921523;28;99550;-62
2022/12/10 05:58:50;;;;;;;;;;;;;;;9.93;49.52;99842.97;4959793;28;98882;-65
2022/12/10 06:01:18;;;;;;;;;;;;;;;9.94;49.54;99852.63;4961663;28;98194;-65
2022/12/10 06:03:44;;;;;;;;;;;;;;;9.94;50.26;99853.47;4956974;28;109390;-62
2022/12/10 06:06:10;;;;;;;;;;;;;;;9.94;49.85;99847.25;4956928;28;98340;-65
2022/12/10 06:08:36;;;;;;;;;;;;;;;9.94;49.54;99847.25;4956950;28;98229;-62
2022/12/10 06:11:07;;;;;;;;;;;;;;;9.93;49.70;99849.16;4925741;28;115908;-62
2022/12/10 06:13:32;;;;;;;;;;;;;;;9.94;49.55;99850.78;4958476;28;99135;-65
2022/12/10 06:15:58;;;;;;;;;;;;;;;9.94;50.29;99850.78;4927081;28;128216;-65
2022/12/10 06:18:24;;;;;;;;;;;;;;;9.94;49.70;99845.41;4956536;28;129230;-62
2022/12/10 06:20:50;;;;;;;;;;;;;;;9.94;50.05;99848.09;4927790;28;99543;-62
2022/12/10 06:23:16;;;;;;;;;;;;;;;9.94;49.54;99849.94;4923911;28;107287;-65
2022/12/10 06:25:42;;;;;;;;;;;;;;;9.94;49.75;99850.78;4946716;28;98234;-62
2022/12/10 06:28:08;;;;;;;;;;;;;;;9.94;50.02;99850.78;4953730;28;128951;-65
2022/12/10 06:30:34;;;;;;;;;;;;;;;9.93;49.88;99859.13;4940875;28;127864;-65
2022/12/10 06:33:00;;;;;;;;;;;;;;;9.94;49.68;99858.03;4910569;28;98389;-65
2022/12/10 06:35:26;;;;;;;;;;;;;;;9.95;49.70;99862.34;4941296;28;116438;-65
2022/12/10 06:37:52;;;;;;;;;;;;;;;9.93;49.71;99854.53;4927443;28;98459;-62
2022/12/10 06:40:18;;;;;;;;;;;;;;;9.94;49.44;99866.94;4944195;28;117821;-62
2022/12/10 06:42:44;;;;;;;;;;;;;;;9.93;49.99;99862.63;4944121;28;98122;-62
2022/12/10 06:45:10;;;;;;;;;;;;;;;9.92;49.97;99862.91;4961977;28;98416;-62
2022/12/10 06:47:36;;;;;;;;;;;;;;;9.92;49.99;99861.00;4947547;28;98539;-65
2022/12/10 06:50:02;;;;;;;;;;;;;;;9.92;49.71;99861.00;4962091;28;124176;-65
2022/12/10 06:52:28;;;;;;;;;;;;;;;9.92;49.99;99865.59;4958380;28;102447;-62
2022/12/10 06:54:55;;;;;;;;;;;;;;;9.91;49.88;99874.75;4958385;28;128595;-65
2022/12/10 06:57:21;;;;;;;;;;;;;;;9.91;49.50;99872.06;4975031;28;98198;-65
2022/12/10 06:59:47;;;;;;;;;;;;;;;9.90;50.05;99870.44;4943747;28;105542;-62
2022/12/10 07:02:12;;;;;;;;;;;;;;;9.90;50.03;99881.19;4943031;28;98943;-65
2022/12/10 07:04:38;;;;;;;;;;;;;;;9.89;49.79;99883.09;4942596;28;100681;-62
2022/12/10 07:07:06;;;;;;;;;;;;;;;9.90;49.79;99881.19;4961858;28;117364;-65
2022/12/10 07:09:32;;;;;;;;;;;;;;;9.89;49.64;99882.28;4938711;28;97960;-62
2022/12/10 07:11:58;;;;;;;;;;;;;;;9.88;50.22;99886.88;4942248;28;98328;-62
2022/12/10 07:14:24;;;;;;;;;;;;;;;9.89;49.99;99879.59;4940711;28;127547;-65
2022/12/10 07:16:50;;;;;;;;;;;;;;;9.88;50.08;99889.56;4957319;28;98151;-65
2022/12/10 07:19:16;;;;;;;;;;;;;;;9.88;49.85;99878.00;4936403;28;128655;-65
2022/12/10 07:21:42;;;;;;;;;;;;;;;9.87;49.89;99882.59;4952863;28;113543;-65
2022/12/10 07:24:11;;;;;;;;;;;;;;;9.87;49.61;99876.41;4937884;28;98238;-65
2022/12/10 07:26:38;;;;;;;;;;;;;;;9.87;50.11;99882.59;4935260;28;98148;-65
2022/12/10 07:29:04;;;;;;;;;;;;;;;9.86;49.65;99880.94;4938368;28;125295;-65
2022/12/10 07:31:30;;;;;;;;;;;;;;;9.86;49.45;99886.31;4940991;28;98172;-65
2022/12/10 07:33:57;;;;;;;;;;;;;;;9.86;50.05;99883.63;4973361;28;121822;-62
2022/12/10 07:36:23;;;;;;;;;;;;;;;9.86;50.16;99889.03;4957011;28;99031;-65
2022/12/10 07:38:50;;;;;;;;;;;;;;;9.86;50.16;99883.63;4956367;28;99482;-62
2022/12/10 07:41:16;;;;;;;;;;;;;;;9.87;49.51;99889.84;4927955;28;98181;-65
2022/12/10 07:43:42;;;;;;;;;;;;;;;9.87;49.49;99900.63;4934978;28;121650;-66
2022/12/10 07:46:10;;;;;;;;;;;;;;;9.86;50.07;99888.22;4955557;28;98700;-65
2022/12/10 07:48:37;;;;;;;;;;;;;;;9.85;49.90;99898.19;4914228;28;121043;-65
2022/12/10 07:51:03;;;;;;;;;;;;;;;9.86;49.83;99899.78;4917562;28;111996;-62
2022/12/10 07:53:29;;;;;;;;;;;;;;;9.87;50.14;99906.00;4936963;28;100039;-62
2022/12/10 07:55:55;;;;;;;;;;;;;;;9.86;49.39;99905.19;4953058;28;125231;-62
2022/12/10 07:58:21;;;;;;;;;;;;;;;9.88;49.74;99910.31;4938750;28;127350;-65
2022/12/10 08:00:47;;;;;;;;;;;;;;;9.87;50.11;99904.13;4920430;28;98137;-65
2022/12/10 08:03:12;;;;;;;;;;;;;;;9.88;49.88;99905.72;4948617;28;127632;-62
2022/12/10 08:05:38;;;;;;;;;;;;;;;9.88;50.05;99905.72;4933760;28;127355;-65
2022/12/10 08:08:04;;;;;;;;;;;;;;;9.89;49.80;99912.72;4917495;28;127603;-65
2022/12/10 08:10:33;;;;;;;;;;;;;;;9.89;49.48;99901.94;4920763;28;100206;-61
2022/12/10 08:12:59;;;;;;;;;;;;;;;9.89;49.80;99906.53;4932727;28;119440;-65
2022/12/10 08:15:25;;;;;;;;;;;;;;;9.91;50.08;99904.38;4919244;28;128578;-65
2022/12/10 08:17:51;;;;;;;;;;;;;;;9.91;49.85;99912.44;4952269;28;126357;-65
2022/12/10 08:20:17;;;;;;;;;;;;;;;9.92;49.98;99912.16;4918758;28;117718;-62
2022/12/10 08:22:42;;;;;;;;;;;;;;;9.94;49.77;99911.88;4939944;28;98634;-65
2022/12/10 08:25:08;;;;;;;;;;;;;;;9.95;49.82;99914.31;4937304;28;128560;-65
2022/12/10 08:27:34;;;;;;;;;;;;;;;9.96;49.76;99912.41;4936644;28;118832;-65
2022/12/10 08:30:00;;;;;;;;;;;;;;;9.97;49.67;99916.72;4923461;28;111291;-62
2022/12/10 08:32:26;;;;;;;;;;;;;;;9.97;49.32;99928.28;4934848;28;128094;-66
2022/12/10 08:34:52;;;;;;;;;;;;;;;9.99;49.66;99917.25;4932726;28;128353;-65
2022/12/10 08:37:18;;;;;;;;;;;;;;;10.00;49.73;99922.34;4951737;28;127883;-65
2022/12/10 08:39:44;;;;;;;;;;;;;;;10.02;49.59;99917.50;4915210;28;98223;-65
2022/12/10 08:42:10;;;;;;;;;;;;;;;10.02;49.72;99922.91;4933133;28;127772;-62
2022/12/10 08:44:36;;;;;;;;;;;;;;;10.06;49.29;99923.13;4937395;28;127492;-65
2022/12/10 08:47:02;;;;;;;;;;;;;;;10.07;49.29;99922.06;4918810;28;123523;-65
2022/12/10 08:49:27;;;;;;;;;;;;;;;10.10;49.97;99921.50;4952515;28;111866;-62
2022/12/10 08:51:53;;;;;;;;;;;;;;;10.11;49.98;99925.00;4932946;28;128535;-65
2022/12/10 08:54:19;;;;;;;;;;;;;;;10.14;49.26;99921.75;4934635;28;125983;-62
2022/12/10 08:56:45;;;;;;;;;;;;;;;10.16;49.63;99919.59;4918492;28;128763;-65
2022/12/10 08:59:11;;;;;;;;;;;;;;;10.18;49.88;99934.41;4920298;28;98129;-62
2022/12/10 09:01:37;;;;;;;;;;;;;;;10.19;49.54;99924.44;4921057;28;130244;-65
2022/12/10 09:04:03;;;;;;;;;;;;;;;10.21;49.29;99928.44;4918917;28;126522;-64
2022/12/10 09:06:30;;;;;;;;;;;;;;;10.22;49.45;99930.06;4933798;28;127915;-65
2022/12/10 09:08:56;;;;;;;;;;;;;;;10.22;49.44;99940.84;4935560;28;98267;-61
2022/12/10 09:11:29;;;;;;;;;;;;;;;10.24;49.82;99943.25;4955951;28;127229;-61
2022/12/10 09:13:55;;;;;;;;;;;;;;;10.26;49.37;99939.22;4925137;28;123185;-61
2022/12/10 09:16:21;;;;;;;;;;;;;;;10.28;49.56;99942.44;4922392;28;114742;-64
2022/12/10 09:18:47;;;;;;;;;;;;;;;10.29;49.62;99951.31;4935033;28;98315;-61
2022/12/10 09:21:15;;;;;;;;;;;;;;;10.29;49.96;99940.56;4937800;28;128715;-61
2022/12/10 09:23:41;;;;;;;;;;;;;;;10.30;49.78;99948.38;4907418;28;122883;-64
2022/12/10 09:26:12;;;;;;;;;;;;;;;10.31;49.24;99943.78;4939198;28;98285;-64
2022/12/10 09:28:38;;;;;;;;;;;;;;;10.32;49.28;99940.00;4924338;28;98411;-61
2022/12/10 09:31:04;;;;;;;;;;;;;;;10.32;49.46;99940.81;4947631;28;98469;-61
2022/12/10 09:33:30;;;;;;;;;;;;;;;10.34;49.57;99937.84;4939956;28;98552;-61
2022/12/10 09:35:56;;;;;;;;;;;;;;;10.34;49.33;99937.84;4954250;28;98840;-61
2022/12/10 09:38:22;;;;;;;;;;;;;;;10.35;49.29;99939.44;4921436;28;99202;-64
2022/12/10 09:40:59;;;;;;;;;;;;;;;10.36;49.52;99938.34;4936944;28;129309;-64
2022/12/10 09:43:32;;;;;;;;;;;;;;;10.35;49.61;99925.97;4954842;28;107552;-61
2022/12/10 09:46:26;;;;;;;;;;;;;;;10.36;49.56;99934.88;4954668;28;98482;-61
2022/12/10 09:49:08;;;;;;;;;;;;;;;10.35;49.86;99925.19;4925432;28;102466;-61
2022/12/10 09:51:37;;;;;;;;;;;;;;;10.36;49.43;99935.66;4941668;28;112438;-64
2022/12/10 09:54:30;;;;;;;;;;;;;;;10.36;49.86;99929.47;4919860;28;127961;-61
2022/12/10 09:56:56;;;;;;;;;;;;;;;10.35;49.51;99922.47;4942708;28;118448;-62
2022/12/10 09:59:40;;;;;;;;;;;;;;;10.35;49.82;99927.88;4954568;28;98729;-65
2022/12/10 10:02:24;;;;;;;;;;;;;;;10.34;49.34;99932.47;4937079;28;128150;-62
2022/12/10 10:04:51;;;;;;;;;;;;;;;10.34;49.55;99931.66;4925730;28;98032;-62
2022/12/10 10:07:22;;;;;;;;;;;;;;;10.33;49.42;99930.81;4921194;28;98350;-64
2022/12/10 10:09:48;;;;;;;;;;;;;;;10.33;49.48;99930.81;4937602;28;98071;-62
2022/12/10 10:12:14;;;;;;;;;;;;;;;10.33;49.79;99928.13;4954127;28;127562;-62
2022/12/10 10:14:41;;;;;;;;;;;;;;;10.34;49.53;99928.97;4937392;28;98316;-62
2022/12/10 10:17:30;;;;;;;;;;;;;;;10.32;49.59;99924.63;4920762;28;98216;-62
2022/12/10 10:19:56;;;;;;;;;;;;;;;10.31;49.60;99923.03;4940935;28;97870;-62
2022/12/10 10:22:22;;;;;;;;;;;;;;;10.32;49.44;99927.34;4952946;28;126356;-63
2022/12/10 10:24:48;;;;;;;;;;;;;;;10.32;50.07;99924.63;4920927;28;99529;-65
2022/12/10 10:27:16;;;;;;;;;;;;;;;10.31;49.49;99933.00;4936545;28;122488;-65
2022/12/10 10:29:43;;;;;;;;;;;;;;;10.31;49.65;99924.94;4953960;28;98364;-63
2022/12/10 10:32:20;;;;;;;;;;;;;;;10.32;49.37;99937.31;4925874;28;98320;-63
2022/12/10 10:34:47;;;;;;;;;;;;;;;10.34;49.51;99937.03;4935692;28;98326;-66
2022/12/10 10:37:34;;;;;;;;;;;;;;;10.33;49.46;99933.53;4920829;28;125013;-63
2022/12/10 10:40:00;;;;;;;;;;;;;;;10.34;49.79;99923.56;4931765;28;98868;-63
2022/12/10 10:42:42;;;;;;;;;;;;;;;10.34;49.45;99924.38;4955649;28;128008;-63
2022/12/10 10:45:38;;;;;;;;;;;;;;;10.35;49.45;99911.72;4934634;28;98310;-66
2022/12/10 10:48:24;;;;;;;;;;;;;;;10.36;49.86;99916.00;4969332;28;98581;-65
2022/12/10 10:50:51;;;;;;;;;;;;;;;10.35;49.51;99917.09;4955929;28;104917;-63
2022/12/10 10:53:23;;;;;;;;;;;;;;;10.36;49.52;99924.88;4972538;28;99067;-63
2022/12/10 10:55:50;;;;;;;;;;;;;;;10.35;49.49;99912.50;4942760;28;98282;-65
2022/12/10 10:58:20;;;;;;;;;;;;;;;10.35;49.81;99911.72;4959956;28;98137;-66
2022/12/10 11:01:00;;;;;;;;;;;;;;;10.34;49.82;99916.28;4936206;27;98481;-62
2022/12/10 11:03:28;;;;;;;;;;;;;;;10.34;49.21;99913.59;4953400;28;98185;-66
2022/12/10 11:05:54;;;;;;;;;;;;;;;10.34;49.55;99910.09;4954762;28;99102;-62
2022/12/10 11:08:20;;;;;;;;;;;;;;;10.33;49.50;99914.66;4938576;28;98467;-62
2022/12/10 11:10:51;;;;;;;;;;;;;;;10.34;49.53;99910.09;4958080;28;98227;-65
2022/12/10 11:13:25;;;;;;;;;;;;;;;10.32;49.55;99915.75;4970654;28;105140;-65
2022/12/10 11:15:59;;;;;;;;;;;;;;;10.31;49.88;99906.06;4956868;28;98318;-62
2022/12/10 11:18:26;;;;;;;;;;;;;;;10.31;49.31;99908.75;4933148;28;98666;-62
2022/12/10 11:21:14;;;;;;;;;;;;;;;10.31;49.44;99906.06;4957149;28;97910;-62
2022/12/10 11:23:41;;;;;;;;;;;;;;;10.30;49.52;99915.25;4951718;28;99409;-62
2022/12/10 11:26:38;;;;;;;;;;;;;;;10.28;49.76;99915.50;4954832;28;113628;-65
2022/12/10 11:29:21;;;;;;;;;;;;;;;10.27;49.38;99919.28;4971359;28;98158;-65
2022/12/10 11:32:05;;;;;;;;;;;;;;;10.26;49.50;99922.28;4971017;27;97983;-62
2022/12/10 11:35:01;;;;;;;;;;;;;;;10.26;49.82;99916.88;4949060;28;98382;-65
2022/12/10 11:37:38;;;;;;;;;;;;;;;10.25;49.53;99912.56;4975226;28;100179;-67
2022/12/10 11:40:22;;;;;;;;;;;;;;;10.25;49.94;99917.94;4951750;28;98206;-65
2022/12/10 11:42:58;;;;;;;;;;;;;;;10.24;49.92;99910.94;4969471;28;98781;-62
2022/12/10 11:45:42;;;;;;;;;;;;;;;10.24;49.91;99911.72;4952058;28;122424;-65
2022/12/10 11:48:18;;;;;;;;;;;;;;;10.24;49.98;99919.00;4976233;28;98387;-62
2022/12/10 11:50:47;;;;;;;;;;;;;;;10.24;49.41;99921.69;4970832;28;129692;-62
2022/12/10 11:53:38;;;;;;;;;;;;;;;10.23;49.56;99915.50;4939133;28;98011;-66
2022/12/10 11:56:23;;;;;;;;;;;;;;;10.24;49.99;99909.03;4959303;28;98329;-62
2022/12/10 11:59:14;;;;;;;;;;;;;;;10.24;50.01;99919.81;4955359;28;98060;-65
2022/12/10 12:01:49;;;;;;;;;;;;;;;10.24;49.57;99916.31;4942946;28;98009;-65
2022/12/10 12:04:42;;;;;;;;;;;;;;;10.24;49.61;99927.09;4974726;28;98290;-62
2022/12/10 12:07:36;;;;;;;;;;;;;;;10.22;49.56;99921.19;4955745;28;99179;-65
2022/12/10 12:10:23;;;;;;;;;;;;;;;10.19;49.59;99919.03;4951816;28;122373;-65
2022/12/10 12:13:05;;;;;;;;;;;;;;;10.18;49.84;99922.78;4954194;28;97977;-66
2022/12/10 12:15:53;;;;;;;;;;;;;;;10.15;49.68;99926.06;4938201;28;99591;-65
2022/12/10 12:18:41;;;;;;;;;;;;;;;10.14;49.49;99927.97;4950039;28;115753;-61
2022/12/10 12:21:11;;;;;;;;;;;;;;;10.12;49.58;99919.34;4972476;28;99226;-61
2022/12/10 12:23:47;;;;;;;;;;;;;;;10.12;49.76;99922.03;4938268;28;99097;-64
2022/12/10 12:26:17;;;;;;;;;;;;;;;10.11;49.77;99923.13;4969868;28;98987;-61
2022/12/10 12:28:55;;;;;;;;;;;;;;;10.11;49.58;99927.72;4961652;28;97970;-62
2022/12/10 12:31:27;;;;;;;;;;;;;;;10.09;50.03;99925.28;4953968;28;98410;-61
2022/12/10 12:34:15;;;;;;;;;;;;;;;10.09;49.61;99928.75;4952532;28;99452;-64
2022/12/10 12:36:41;;;;;;;;;;;;;;;10.08;49.66;99929.84;4937005;28;111012;-66
2022/12/10 12:39:28;;;;;;;;;;;;;;;10.07;50.03;99928.25;4929879;28;128588;-64
2022/12/10 12:42:06;;;;;;;;;;;;;;;10.08;49.73;99924.47;4937885;28;98452;-64
2022/12/10 12:44:57;;;;;;;;;;;;;;;10.07;49.99;99922.88;4954720;28;98259;-64
2022/12/10 12:47:41;;;;;;;;;;;;;;;10.06;50.09;99925.81;4964725;28;98079;-64
2022/12/10 12:50:20;;;;;;;;;;;;;;;10.06;49.65;99921.25;4951455;28;126301;-64
2022/12/10 12:52:53;;;;;;;;;;;;;;;10.05;50.09;99924.22;4941927;28;113902;-61
2022/12/10 12:55:22;;;;;;;;;;;;;;;10.05;49.72;99921.53;4939007;28;100895;-61
2022/12/10 12:58:16;;;;;;;;;;;;;;;10.05;49.45;99918.81;4938817;28;115402;-64
2022/12/10 13:00:43;;;;;;;;;;;;;;;10.05;49.59;99911.56;4956449;28;98811;-61
2022/12/10 13:03:20;;;;;;;;;;;;;;;10.04;49.72;99911.84;4951329;28;98057;-61
2022/12/10 13:05:46;;;;;;;;;;;;;;;10.05;49.88;99921.53;4967516;28;103267;-61
2022/12/10 13:08:18;;;;;;;;;;;;;;;10.04;49.67;99919.91;4953685;28;98625;-63
2022/12/10 13:10:46;;;;;;;;;;;;;;;10.03;50.04;99926.41;4968594;28;102479;-63